Pagrindinis puslapis
METAR-TAF:

METAR-TAF

Oro uostai :

Dijarbakyras, Turkija

platuma: 37-53N, ilguma: 040-11E, Aukštis: 686 m

Dabartinis oras

Ataskaita buvo paskelbta 34 minutes, ne 17:50 UTC
Vėjas 4 kt iš Šiaurės
Temperatūra 26°C
Drėgmė 32%
Slėgis 1008 hPa
Matomumas 10 km arba daugiau
nėra debesų žemiau 1500 m ir nėra kamuolinių lietaus debesų

METAR: LTCC 151750Z 01004KT CAVOK 26/08 Q1008 NOSIG RMK RWY16 33003KT 300V360

Laikas: 21:24 (18:24 UTC)

Prognozė

Ataskaita buvo paskelbta 1 valandą ir 44 minutes, ne 16:40 UTC
Prognozė galioja nuo 15 metu 18 UTC su 16 metu 18 UTC
Vėjas 7 kt iš Vakarų/Šiaurės Vakarų
Matomumas 10 km arba daugiau
nėra debesų žemiau 1500 m ir nėra kamuolinių lietaus debesų
Tapsmas
nuo 16 metu 07 UTC su 16 metu 10 UTC
Vėjas 12 kt iš Pietų
Mažai debesys ne aukštis 4000 ft

TAF: LTCC 151640Z 1518/1618 30007KT CAVOK BECMG 1607/1610 18012KT FEW040

Orai ataskaitas ir orų prognozės (METAR, TAF).

turimą stotys yra geltonos ir raudonos taškus žemėlapyje.

Perkelti pele per norėdami pamatyti stoties vardą.

Tada spustelėkite, norėdami matyti oro stebėjimo ir prognozės.

Norėdami pakeisti žemėlapį: spustelėkite ant žalios mygtukų su juodo kryžiaus žemyn,; žalią mygtuką su brūkšneliu, jei norite nutolinti; arba žalių rodyklių gretimoms žemėlapius.


METAR-TAF: